sensor_id;sensor_type;location;lat;lon;timestamp;P1;durP1;ratioP1;P2;durP2;ratioP2
18407;SDS011;9330;52.210;21.174;2024-02-16T00:00:24;18.20;;;13.60;;
18407;SDS011;9330;52.210;21.174;2024-02-16T00:02:51;18.20;;;13.25;;
18407;SDS011;9330;52.210;21.174;2024-02-16T00:05:18;18.95;;;12.98;;
18407;SDS011;9330;52.210;21.174;2024-02-16T00:07:45;18.08;;;12.50;;
18407;SDS011;9330;52.210;21.174;2024-02-16T00:10:14;20.02;;;13.00;;
18407;SDS011;9330;52.210;21.174;2024-02-16T00:12:43;20.90;;;13.93;;
18407;SDS011;9330;52.210;21.174;2024-02-16T00:15:10;17.48;;;12.70;;
18407;SDS011;9330;52.210;21.174;2024-02-16T00:17:37;16.25;;;12.27;;
18407;SDS011;9330;52.210;21.174;2024-02-16T00:20:05;18.80;;;13.55;;
18407;SDS011;9330;52.210;21.174;2024-02-16T00:22:33;17.38;;;12.32;;
18407;SDS011;9330;52.210;21.174;2024-02-16T00:25:00;18.15;;;11.85;;
18407;SDS011;9330;52.210;21.174;2024-02-16T00:27:30;16.50;;;11.80;;
18407;SDS011;9330;52.210;21.174;2024-02-16T00:29:57;14.88;;;10.75;;
18407;SDS011;9330;52.210;21.174;2024-02-16T00:32:24;15.18;;;10.95;;
18407;SDS011;9330;52.210;21.174;2024-02-16T00:34:55;15.68;;;10.95;;
18407;SDS011;9330;52.210;21.174;2024-02-16T00:37:23;18.98;;;10.73;;
18407;SDS011;9330;52.210;21.174;2024-02-16T00:39:50;17.48;;;10.98;;
18407;SDS011;9330;52.210;21.174;2024-02-16T00:42:19;13.63;;;9.93;;
18407;SDS011;9330;52.210;21.174;2024-02-16T00:44:49;15.57;;;10.68;;
18407;SDS011;9330;52.210;21.174;2024-02-16T00:47:16;13.00;;;9.65;;
18407;SDS011;9330;52.210;21.174;2024-02-16T00:49:43;12.38;;;9.93;;
18407;SDS011;9330;52.210;21.174;2024-02-16T00:52:10;16.08;;;10.50;;
18407;SDS011;9330;52.210;21.174;2024-02-16T00:54:37;12.60;;;9.00;;
18407;SDS011;9330;52.210;21.174;2024-02-16T00:57:04;14.13;;;10.02;;
18407;SDS011;9330;52.210;21.174;2024-02-16T00:59:31;12.30;;;9.40;;
18407;SDS011;9330;52.210;21.174;2024-02-16T01:02:00;12.93;;;9.07;;
18407;SDS011;9330;52.210;21.174;2024-02-16T01:04:27;15.25;;;9.20;;
18407;SDS011;9330;52.210;21.174;2024-02-16T01:06:55;13.80;;;9.80;;
18407;SDS011;9330;52.210;21.174;2024-02-16T01:09:22;11.77;;;9.07;;
18407;SDS011;9330;52.210;21.174;2024-02-16T01:11:48;12.55;;;8.63;;
18407;SDS011;9330;52.210;21.174;2024-02-16T01:14:15;12.50;;;8.80;;
18407;SDS011;9330;52.210;21.174;2024-02-16T01:16:42;11.18;;;8.27;;
18407;SDS011;9330;52.210;21.174;2024-02-16T01:19:11;13.07;;;9.10;;
18407;SDS011;9330;52.210;21.174;2024-02-16T01:21:38;12.45;;;8.27;;
18407;SDS011;9330;52.210;21.174;2024-02-16T01:24:06;12.30;;;7.53;;
18407;SDS011;9330;52.210;21.174;2024-02-16T01:26:34;11.27;;;7.88;;
18407;SDS011;9330;52.210;21.174;2024-02-16T01:29:01;11.05;;;8.15;;
18407;SDS011;9330;52.210;21.174;2024-02-16T01:31:28;12.80;;;8.50;;
18407;SDS011;9330;52.210;21.174;2024-02-16T01:33:55;12.10;;;7.38;;
18407;SDS011;9330;52.210;21.174;2024-02-16T01:36:23;11.38;;;8.38;;
18407;SDS011;9330;52.210;21.174;2024-02-16T01:38:50;12.73;;;8.38;;
18407;SDS011;9330;52.210;21.174;2024-02-16T01:41:17;9.50;;;7.32;;
18407;SDS011;9330;52.210;21.174;2024-02-16T01:43:44;12.10;;;8.02;;
18407;SDS011;9330;52.210;21.174;2024-02-16T01:46:11;14.02;;;8.05;;
18407;SDS011;9330;52.210;21.174;2024-02-16T01:48:38;12.30;;;8.05;;
18407;SDS011;9330;52.210;21.174;2024-02-16T01:51:05;12.85;;;8.27;;
18407;SDS011;9330;52.210;21.174;2024-02-16T01:53:36;11.63;;;8.70;;
18407;SDS011;9330;52.210;21.174;2024-02-16T01:56:03;10.80;;;7.82;;
18407;SDS011;9330;52.210;21.174;2024-02-16T01:58:30;10.10;;;8.05;;
18407;SDS011;9330;52.210;21.174;2024-02-16T02:00:57;10.32;;;7.47;;
18407;SDS011;9330;52.210;21.174;2024-02-16T02:03:24;12.30;;;7.65;;
18407;SDS011;9330;52.210;21.174;2024-02-16T02:05:51;12.05;;;7.53;;
18407;SDS011;9330;52.210;21.174;2024-02-16T02:08:19;11.20;;;7.93;;
18407;SDS011;9330;52.210;21.174;2024-02-16T02:10:48;10.10;;;7.68;;
18407;SDS011;9330;52.210;21.174;2024-02-16T02:13:15;12.55;;;7.55;;
18407;SDS011;9330;52.210;21.174;2024-02-16T02:15:42;9.98;;;7.20;;
18407;SDS011;9330;52.210;21.174;2024-02-16T02:18:09;11.70;;;7.55;;
18407;SDS011;9330;52.210;21.174;2024-02-16T02:20:35;10.90;;;7.53;;
18407;SDS011;9330;52.210;21.174;2024-02-16T02:23:04;11.18;;;7.25;;
18407;SDS011;9330;52.210;21.174;2024-02-16T02:25:31;11.32;;;7.50;;
18407;SDS011;9330;52.210;21.174;2024-02-16T02:28:00;8.93;;;7.05;;
18407;SDS011;9330;52.210;21.174;2024-02-16T02:30:28;12.85;;;7.57;;
18407;SDS011;9330;52.210;21.174;2024-02-16T02:32:54;11.25;;;7.50;;
18407;SDS011;9330;52.210;21.174;2024-02-16T02:35:21;11.68;;;7.70;;
18407;SDS011;9330;52.210;21.174;2024-02-16T02:37:48;11.07;;;7.50;;
18407;SDS011;9330;52.210;21.174;2024-02-16T02:40:17;10.65;;;8.02;;
18407;SDS011;9330;52.210;21.174;2024-02-16T02:42:44;12.65;;;7.85;;
18407;SDS011;9330;52.210;21.174;2024-02-16T02:45:11;9.45;;;7.32;;
18407;SDS011;9330;52.210;21.174;2024-02-16T02:47:38;9.50;;;7.07;;
18407;SDS011;9330;52.210;21.174;2024-02-16T02:50:05;10.10;;;7.03;;
18407;SDS011;9330;52.210;21.174;2024-02-16T02:52:33;11.10;;;7.13;;
18407;SDS011;9330;52.210;21.174;2024-02-16T02:54:59;9.55;;;7.00;;
18407;SDS011;9330;52.210;21.174;2024-02-16T02:57:28;9.93;;;6.72;;
18407;SDS011;9330;52.210;21.174;2024-02-16T03:00:00;11.75;;;7.35;;
18407;SDS011;9330;52.210;21.174;2024-02-16T03:02:31;11.57;;;7.38;;
18407;SDS011;9330;52.210;21.174;2024-02-16T03:04:58;11.10;;;7.25;;
18407;SDS011;9330;52.210;21.174;2024-02-16T03:07:25;13.27;;;7.97;;
18407;SDS011;9330;52.210;21.174;2024-02-16T03:09:52;10.85;;;7.65;;
18407;SDS011;9330;52.210;21.174;2024-02-16T03:12:19;12.10;;;7.90;;
18407;SDS011;9330;52.210;21.174;2024-02-16T03:14:48;10.85;;;7.75;;
18407;SDS011;9330;52.210;21.174;2024-02-16T03:17:15;12.15;;;7.93;;
18407;SDS011;9330;52.210;21.174;2024-02-16T03:19:42;10.20;;;7.35;;
18407;SDS011;9330;52.210;21.174;2024-02-16T03:22:09;13.10;;;7.60;;
18407;SDS011;9330;52.210;21.174;2024-02-16T03:24:36;11.65;;;7.60;;
18407;SDS011;9330;52.210;21.174;2024-02-16T03:27:03;12.57;;;7.40;;
18407;SDS011;9330;52.210;21.174;2024-02-16T03:29:30;10.93;;;7.50;;
18407;SDS011;9330;52.210;21.174;2024-02-16T03:31:58;13.18;;;7.45;;
18407;SDS011;9330;52.210;21.174;2024-02-16T03:34:25;10.70;;;7.65;;
18407;SDS011;9330;52.210;21.174;2024-02-16T03:36:52;10.88;;;7.45;;
18407;SDS011;9330;52.210;21.174;2024-02-16T03:39:19;10.63;;;7.50;;
18407;SDS011;9330;52.210;21.174;2024-02-16T03:41:46;12.40;;;8.20;;
18407;SDS011;9330;52.210;21.174;2024-02-16T03:44:14;13.48;;;7.82;;
18407;SDS011;9330;52.210;21.174;2024-02-16T03:46:41;11.27;;;7.80;;
18407;SDS011;9330;52.210;21.174;2024-02-16T03:49:09;10.40;;;7.25;;
18407;SDS011;9330;52.210;21.174;2024-02-16T03:51:36;11.25;;;8.10;;
18407;SDS011;9330;52.210;21.174;2024-02-16T03:54:03;11.38;;;8.25;;
18407;SDS011;9330;52.210;21.174;2024-02-16T03:56:30;11.88;;;7.43;;
18407;SDS011;9330;52.210;21.174;2024-02-16T03:58:57;11.48;;;8.15;;
18407;SDS011;9330;52.210;21.174;2024-02-16T04:01:24;11.88;;;8.43;;
18407;SDS011;9330;52.210;21.174;2024-02-16T04:03:51;10.68;;;7.80;;
18407;SDS011;9330;52.210;21.174;2024-02-16T04:06:19;12.23;;;7.72;;
18407;SDS011;9330;52.210;21.174;2024-02-16T04:08:46;14.07;;;8.95;;
18407;SDS011;9330;52.210;21.174;2024-02-16T04:11:14;13.18;;;8.20;;
18407;SDS011;9330;52.210;21.174;2024-02-16T04:13:42;12.98;;;8.75;;
18407;SDS011;9330;52.210;21.174;2024-02-16T04:16:09;12.98;;;8.65;;
18407;SDS011;9330;52.210;21.174;2024-02-16T04:18:36;12.13;;;8.80;;
18407;SDS011;9330;52.210;21.174;2024-02-16T04:21:03;12.70;;;8.38;;
18407;SDS011;9330;52.210;21.174;2024-02-16T04:23:31;12.55;;;8.65;;
18407;SDS011;9330;52.210;21.174;2024-02-16T04:25:58;14.20;;;8.60;;
18407;SDS011;9330;52.210;21.174;2024-02-16T04:28:25;11.82;;;8.15;;
18407;SDS011;9330;52.210;21.174;2024-02-16T04:30:52;13.23;;;9.45;;
18407;SDS011;9330;52.210;21.174;2024-02-16T04:33:19;14.60;;;9.82;;
18407;SDS011;9330;52.210;21.174;2024-02-16T04:35:46;12.55;;;8.98;;
18407;SDS011;9330;52.210;21.174;2024-02-16T04:38:15;13.35;;;8.40;;
18407;SDS011;9330;52.210;21.174;2024-02-16T04:40:43;12.95;;;8.63;;
18407;SDS011;9330;52.210;21.174;2024-02-16T04:43:10;12.90;;;8.80;;
18407;SDS011;9330;52.210;21.174;2024-02-16T04:45:37;12.45;;;8.70;;
18407;SDS011;9330;52.210;21.174;2024-02-16T04:48:04;12.45;;;8.55;;
18407;SDS011;9330;52.210;21.174;2024-02-16T04:50:32;13.18;;;8.45;;
18407;SDS011;9330;52.210;21.174;2024-02-16T04:53:00;11.93;;;7.70;;
18407;SDS011;9330;52.210;21.174;2024-02-16T04:55:27;13.07;;;8.52;;
18407;SDS011;9330;52.210;21.174;2024-02-16T04:57:56;13.55;;;8.77;;
18407;SDS011;9330;52.210;21.174;2024-02-16T05:00:23;15.13;;;9.25;;
18407;SDS011;9330;52.210;21.174;2024-02-16T05:02:50;13.75;;;8.25;;
18407;SDS011;9330;52.210;21.174;2024-02-16T05:05:18;12.35;;;8.65;;
18407;SDS011;9330;52.210;21.174;2024-02-16T05:07:46;14.25;;;8.65;;
18407;SDS011;9330;52.210;21.174;2024-02-16T05:10:15;11.70;;;8.15;;
18407;SDS011;9330;52.210;21.174;2024-02-16T05:12:42;13.32;;;9.45;;
18407;SDS011;9330;52.210;21.174;2024-02-16T05:15:10;13.88;;;9.05;;
18407;SDS011;9330;52.210;21.174;2024-02-16T05:17:39;12.57;;;8.55;;
18407;SDS011;9330;52.210;21.174;2024-02-16T05:20:09;12.98;;;8.45;;
18407;SDS011;9330;52.210;21.174;2024-02-16T05:22:40;12.63;;;8.80;;
18407;SDS011;9330;52.210;21.174;2024-02-16T05:25:08;11.73;;;8.32;;
18407;SDS011;9330;52.210;21.174;2024-02-16T05:27:36;14.05;;;8.73;;
18407;SDS011;9330;52.210;21.174;2024-02-16T05:30:04;13.10;;;8.93;;
18407;SDS011;9330;52.210;21.174;2024-02-16T05:32:34;12.43;;;8.60;;
18407;SDS011;9330;52.210;21.174;2024-02-16T05:35:02;12.73;;;9.10;;
18407;SDS011;9330;52.210;21.174;2024-02-16T05:37:36;12.77;;;8.48;;
18407;SDS011;9330;52.210;21.174;2024-02-16T05:40:06;13.68;;;8.70;;
18407;SDS011;9330;52.210;21.174;2024-02-16T05:42:44;13.93;;;8.88;;
18407;SDS011;9330;52.210;21.174;2024-02-16T05:45:12;12.75;;;8.63;;
18407;SDS011;9330;52.210;21.174;2024-02-16T05:47:40;15.80;;;9.55;;
18407;SDS011;9330;52.210;21.174;2024-02-16T05:50:08;13.07;;;9.13;;
18407;SDS011;9330;52.210;21.174;2024-02-16T05:52:37;11.52;;;8.32;;
18407;SDS011;9330;52.210;21.174;2024-02-16T05:55:04;14.20;;;9.70;;
18407;SDS011;9330;52.210;21.174;2024-02-16T05:57:32;16.70;;;10.43;;
18407;SDS011;9330;52.210;21.174;2024-02-16T05:59:58;15.05;;;9.90;;
18407;SDS011;9330;52.210;21.174;2024-02-16T06:02:25;16.20;;;9.80;;
18407;SDS011;9330;52.210;21.174;2024-02-16T06:04:54;13.48;;;9.50;;
18407;SDS011;9330;52.210;21.174;2024-02-16T06:07:21;13.65;;;9.18;;
18407;SDS011;9330;52.210;21.174;2024-02-16T06:09:48;12.88;;;8.85;;
18407;SDS011;9330;52.210;21.174;2024-02-16T06:12:15;15.90;;;9.38;;
18407;SDS011;9330;52.210;21.174;2024-02-16T06:14:42;14.65;;;9.05;;
18407;SDS011;9330;52.210;21.174;2024-02-16T06:17:09;12.27;;;8.88;;
18407;SDS011;9330;52.210;21.174;2024-02-16T06:19:36;13.55;;;9.57;;
18407;SDS011;9330;52.210;21.174;2024-02-16T06:22:04;17.88;;;9.93;;
18407;SDS011;9330;52.210;21.174;2024-02-16T06:24:33;13.95;;;9.50;;
18407;SDS011;9330;52.210;21.174;2024-02-16T06:27:00;14.82;;;9.52;;
18407;SDS011;9330;52.210;21.174;2024-02-16T06:29:27;14.98;;;9.98;;
18407;SDS011;9330;52.210;21.174;2024-02-16T06:31:55;13.40;;;9.65;;
18407;SDS011;9330;52.210;21.174;2024-02-16T06:34:22;14.43;;;10.15;;
18407;SDS011;9330;52.210;21.174;2024-02-16T06:36:49;17.50;;;10.23;;
18407;SDS011;9330;52.210;21.174;2024-02-16T06:39:17;17.67;;;9.82;;
18407;SDS011;9330;52.210;21.174;2024-02-16T06:41:45;11.93;;;9.13;;
18407;SDS011;9330;52.210;21.174;2024-02-16T06:44:12;16.38;;;10.27;;
18407;SDS011;9330;52.210;21.174;2024-02-16T06:46:39;13.90;;;9.57;;
18407;SDS011;9330;52.210;21.174;2024-02-16T06:49:06;16.77;;;9.75;;
18407;SDS011;9330;52.210;21.174;2024-02-16T06:51:33;14.45;;;9.50;;
18407;SDS011;9330;52.210;21.174;2024-02-16T06:54:00;11.85;;;9.07;;
18407;SDS011;9330;52.210;21.174;2024-02-16T06:56:29;16.20;;;10.00;;
18407;SDS011;9330;52.210;21.174;2024-02-16T06:58:56;14.35;;;9.57;;
18407;SDS011;9330;52.210;21.174;2024-02-16T07:01:23;15.70;;;9.77;;
18407;SDS011;9330;52.210;21.174;2024-02-16T07:03:51;15.98;;;10.15;;
18407;SDS011;9330;52.210;21.174;2024-02-16T07:06:18;17.15;;;9.90;;
18407;SDS011;9330;52.210;21.174;2024-02-16T07:08:44;15.25;;;9.57;;
18407;SDS011;9330;52.210;21.174;2024-02-16T07:11:12;14.80;;;9.75;;
18407;SDS011;9330;52.210;21.174;2024-02-16T07:13:40;14.77;;;10.05;;
18407;SDS011;9330;52.210;21.174;2024-02-16T07:16:08;14.85;;;10.00;;
18407;SDS011;9330;52.210;21.174;2024-02-16T07:18:35;16.73;;;10.20;;
18407;SDS011;9330;52.210;21.174;2024-02-16T07:21:05;17.17;;;10.00;;
18407;SDS011;9330;52.210;21.174;2024-02-16T07:23:32;16.33;;;10.48;;
18407;SDS011;9330;52.210;21.174;2024-02-16T07:25:59;13.75;;;9.32;;
18407;SDS011;9330;52.210;21.174;2024-02-16T07:28:27;13.48;;;9.77;;
18407;SDS011;9330;52.210;21.174;2024-02-16T07:30:55;14.45;;;9.63;;
18407;SDS011;9330;52.210;21.174;2024-02-16T07:33:22;13.38;;;9.75;;
18407;SDS011;9330;52.210;21.174;2024-02-16T07:35:49;14.95;;;9.07;;
18407;SDS011;9330;52.210;21.174;2024-02-16T07:38:17;13.18;;;9.75;;
18407;SDS011;9330;52.210;21.174;2024-02-16T07:40:44;15.23;;;10.00;;
18407;SDS011;9330;52.210;21.174;2024-02-16T07:43:11;15.23;;;9.73;;
18407;SDS011;9330;52.210;21.174;2024-02-16T07:45:38;14.00;;;9.90;;
18407;SDS011;9330;52.210;21.174;2024-02-16T07:48:07;16.48;;;9.80;;
18407;SDS011;9330;52.210;21.174;2024-02-16T07:50:34;16.50;;;9.52;;
18407;SDS011;9330;52.210;21.174;2024-02-16T07:53:00;16.88;;;10.68;;
18407;SDS011;9330;52.210;21.174;2024-02-16T07:55:27;13.60;;;9.40;;
18407;SDS011;9330;52.210;21.174;2024-02-16T07:57:54;14.60;;;9.52;;
18407;SDS011;9330;52.210;21.174;2024-02-16T08:00:21;13.60;;;9.45;;
18407;SDS011;9330;52.210;21.174;2024-02-16T08:02:48;17.73;;;9.77;;
18407;SDS011;9330;52.210;21.174;2024-02-16T08:05:16;15.82;;;10.63;;
18407;SDS011;9330;52.210;21.174;2024-02-16T08:07:45;18.67;;;10.38;;
18407;SDS011;9330;52.210;21.174;2024-02-16T08:10:13;13.13;;;9.45;;
18407;SDS011;9330;52.210;21.174;2024-02-16T08:12:40;13.30;;;9.52;;
18407;SDS011;9330;52.210;21.174;2024-02-16T08:15:07;12.43;;;8.82;;
18407;SDS011;9330;52.210;21.174;2024-02-16T08:17:35;13.80;;;8.40;;
18407;SDS011;9330;52.210;21.174;2024-02-16T08:20:03;11.93;;;8.80;;
18407;SDS011;9330;52.210;21.174;2024-02-16T08:22:32;12.60;;;8.60;;
18407;SDS011;9330;52.210;21.174;2024-02-16T08:25:00;12.30;;;8.82;;
18407;SDS011;9330;52.210;21.174;2024-02-16T08:27:27;11.63;;;8.95;;
18407;SDS011;9330;52.210;21.174;2024-02-16T08:29:54;13.73;;;8.45;;
18407;SDS011;9330;52.210;21.174;2024-02-16T08:32:20;12.00;;;8.82;;
18407;SDS011;9330;52.210;21.174;2024-02-16T08:34:47;14.18;;;8.15;;
18407;SDS011;9330;52.210;21.174;2024-02-16T08:37:15;10.93;;;7.90;;
18407;SDS011;9330;52.210;21.174;2024-02-16T08:39:44;12.18;;;8.20;;
18407;SDS011;9330;52.210;21.174;2024-02-16T08:42:10;12.15;;;7.82;;
18407;SDS011;9330;52.210;21.174;2024-02-16T08:44:37;15.43;;;9.80;;
18407;SDS011;9330;52.210;21.174;2024-02-16T08:47:05;12.90;;;9.20;;
18407;SDS011;9330;52.210;21.174;2024-02-16T08:49:32;12.02;;;8.75;;
18407;SDS011;9330;52.210;21.174;2024-02-16T08:51:59;12.77;;;8.85;;
18407;SDS011;9330;52.210;21.174;2024-02-16T08:54:26;14.27;;;9.82;;
18407;SDS011;9330;52.210;21.174;2024-02-16T08:56:55;12.52;;;8.48;;
18407;SDS011;9330;52.210;21.174;2024-02-16T08:59:23;13.80;;;9.68;;
18407;SDS011;9330;52.210;21.174;2024-02-16T09:01:50;13.25;;;9.07;;
18407;SDS011;9330;52.210;21.174;2024-02-16T09:04:17;11.57;;;8.25;;
18407;SDS011;9330;52.210;21.174;2024-02-16T09:06:43;14.07;;;8.27;;
18407;SDS011;9330;52.210;21.174;2024-02-16T09:09:10;10.35;;;7.95;;
18407;SDS011;9330;52.210;21.174;2024-02-16T09:11:37;9.30;;;7.40;;
18407;SDS011;9330;52.210;21.174;2024-02-16T09:14:06;10.30;;;7.53;;
18407;SDS011;9330;52.210;21.174;2024-02-16T09:16:33;12.93;;;8.15;;
18407;SDS011;9330;52.210;21.174;2024-02-16T09:18:59;11.43;;;8.02;;
18407;SDS011;9330;52.210;21.174;2024-02-16T09:21:26;9.60;;;7.55;;
18407;SDS011;9330;52.210;21.174;2024-02-16T09:23:55;13.27;;;8.60;;
18407;SDS011;9330;52.210;21.174;2024-02-16T09:26:23;10.45;;;7.95;;
18407;SDS011;9330;52.210;21.174;2024-02-16T09:28:55;10.85;;;7.65;;
18407;SDS011;9330;52.210;21.174;2024-02-16T09:31:23;10.93;;;7.95;;
18407;SDS011;9330;52.210;21.174;2024-02-16T09:33:51;12.43;;;7.50;;
18407;SDS011;9330;52.210;21.174;2024-02-16T09:36:18;12.82;;;8.18;;
18407;SDS011;9330;52.210;21.174;2024-02-16T09:38:45;11.13;;;7.68;;
18407;SDS011;9330;52.210;21.174;2024-02-16T09:41:13;10.70;;;7.13;;
18407;SDS011;9330;52.210;21.174;2024-02-16T09:43:42;10.43;;;7.43;;
18407;SDS011;9330;52.210;21.174;2024-02-16T09:46:09;11.98;;;7.85;;
18407;SDS011;9330;52.210;21.174;2024-02-16T09:48:38;13.70;;;7.90;;
18407;SDS011;9330;52.210;21.174;2024-02-16T09:51:06;11.45;;;7.40;;
18407;SDS011;9330;52.210;21.174;2024-02-16T09:53:34;9.85;;;7.45;;
18407;SDS011;9330;52.210;21.174;2024-02-16T09:56:01;11.40;;;7.85;;
18407;SDS011;9330;52.210;21.174;2024-02-16T09:58:30;9.23;;;6.85;;
18407;SDS011;9330;52.210;21.174;2024-02-16T10:00:57;11.10;;;7.43;;
18407;SDS011;9330;52.210;21.174;2024-02-16T10:03:25;13.10;;;8.23;;
18407;SDS011;9330;52.210;21.174;2024-02-16T10:06:04;10.38;;;7.63;;
18407;SDS011;9330;52.210;21.174;2024-02-16T10:08:32;12.95;;;7.78;;
18407;SDS011;9330;52.210;21.174;2024-02-16T10:11:02;9.68;;;7.50;;
18407;SDS011;9330;52.210;21.174;2024-02-16T10:13:30;10.88;;;7.72;;
18407;SDS011;9330;52.210;21.174;2024-02-16T10:16:06;11.43;;;7.78;;
18407;SDS011;9330;52.210;21.174;2024-02-16T10:18:34;11.52;;;7.35;;
18407;SDS011;9330;52.210;21.174;2024-02-16T10:21:06;9.60;;;7.20;;
18407;SDS011;9330;52.210;21.174;2024-02-16T10:23:34;11.70;;;6.75;;
18407;SDS011;9330;52.210;21.174;2024-02-16T10:26:01;12.02;;;7.50;;
18407;SDS011;9330;52.210;21.174;2024-02-16T10:28:28;10.05;;;6.32;;
18407;SDS011;9330;52.210;21.174;2024-02-16T10:30:57;9.52;;;6.28;;
18407;SDS011;9330;52.210;21.174;2024-02-16T10:33:26;9.68;;;6.82;;
18407;SDS011;9330;52.210;21.174;2024-02-16T10:35:55;9.73;;;6.70;;
18407;SDS011;9330;52.210;21.174;2024-02-16T10:38:24;8.75;;;6.45;;
18407;SDS011;9330;52.210;21.174;2024-02-16T10:40:52;10.85;;;7.18;;
18407;SDS011;9330;52.210;21.174;2024-02-16T10:43:22;8.27;;;6.68;;
18407;SDS011;9330;52.210;21.174;2024-02-16T10:45:50;12.65;;;7.25;;
18407;SDS011;9330;52.210;21.174;2024-02-16T10:48:18;7.90;;;6.10;;
18407;SDS011;9330;52.210;21.174;2024-02-16T10:50:45;13.07;;;6.82;;
18407;SDS011;9330;52.210;21.174;2024-02-16T10:53:18;10.85;;;6.82;;
18407;SDS011;9330;52.210;21.174;2024-02-16T10:55:50;9.05;;;6.00;;
18407;SDS011;9330;52.210;21.174;2024-02-16T10:58:17;11.82;;;6.50;;
18407;SDS011;9330;52.210;21.174;2024-02-16T11:00:48;9.30;;;7.07;;
18407;SDS011;9330;52.210;21.174;2024-02-16T11:03:17;13.35;;;7.25;;
18407;SDS011;9330;52.210;21.174;2024-02-16T11:05:44;9.27;;;6.80;;
18407;SDS011;9330;52.210;21.174;2024-02-16T11:08:12;11.32;;;6.93;;
18407;SDS011;9330;52.210;21.174;2024-02-16T11:10:41;9.85;;;7.22;;
18407;SDS011;9330;52.210;21.174;2024-02-16T11:13:09;10.18;;;7.95;;
18407;SDS011;9330;52.210;21.174;2024-02-16T11:15:36;9.00;;;6.70;;
18407;SDS011;9330;52.210;21.174;2024-02-16T11:18:03;11.73;;;7.15;;
18407;SDS011;9330;52.210;21.174;2024-02-16T11:20:36;9.70;;;6.97;;
18407;SDS011;9330;52.210;21.174;2024-02-16T11:23:04;11.13;;;6.72;;
18407;SDS011;9330;52.210;21.174;2024-02-16T11:25:33;9.65;;;6.72;;
18407;SDS011;9330;52.210;21.174;2024-02-16T11:28:01;10.10;;;6.93;;
18407;SDS011;9330;52.210;21.174;2024-02-16T11:30:30;10.65;;;8.00;;
18407;SDS011;9330;52.210;21.174;2024-02-16T11:33:00;10.63;;;7.47;;
18407;SDS011;9330;52.210;21.174;2024-02-16T11:35:27;8.63;;;7.03;;
18407;SDS011;9330;52.210;21.174;2024-02-16T11:37:57;11.10;;;7.00;;
18407;SDS011;9330;52.210;21.174;2024-02-16T11:40:24;12.57;;;7.95;;
18407;SDS011;9330;52.210;21.174;2024-02-16T11:42:57;9.65;;;6.90;;
18407;SDS011;9330;52.210;21.174;2024-02-16T11:45:24;10.43;;;7.78;;
18407;SDS011;9330;52.210;21.174;2024-02-16T11:48:02;11.65;;;7.95;;
18407;SDS011;9330;52.210;21.174;2024-02-16T11:50:30;10.90;;;7.95;;
18407;SDS011;9330;52.210;21.174;2024-02-16T11:52:57;13.80;;;7.63;;
18407;SDS011;9330;52.210;21.174;2024-02-16T11:55:24;10.15;;;7.18;;
18407;SDS011;9330;52.210;21.174;2024-02-16T11:57:50;10.73;;;7.53;;
18407;SDS011;9330;52.210;21.174;2024-02-16T12:00:19;10.38;;;7.32;;
18407;SDS011;9330;52.210;21.174;2024-02-16T12:02:47;10.65;;;7.38;;
18407;SDS011;9330;52.210;21.174;2024-02-16T12:05:15;9.93;;;7.07;;
18407;SDS011;9330;52.210;21.174;2024-02-16T12:07:42;10.63;;;7.82;;
18407;SDS011;9330;52.210;21.174;2024-02-16T12:10:10;10.63;;;7.03;;
18407;SDS011;9330;52.210;21.174;2024-02-16T12:12:37;10.55;;;7.15;;
18407;SDS011;9330;52.210;21.174;2024-02-16T12:15:04;10.52;;;7.28;;
18407;SDS011;9330;52.210;21.174;2024-02-16T12:17:33;8.35;;;6.60;;
18407;SDS011;9330;52.210;21.174;2024-02-16T12:19:59;9.50;;;6.70;;
18407;SDS011;9330;52.210;21.174;2024-02-16T12:22:29;10.65;;;6.80;;
18407;SDS011;9330;52.210;21.174;2024-02-16T12:24:56;9.23;;;6.68;;
18407;SDS011;9330;52.210;21.174;2024-02-16T12:27:22;8.90;;;7.03;;
18407;SDS011;9330;52.210;21.174;2024-02-16T12:29:49;10.45;;;7.22;;
18407;SDS011;9330;52.210;21.174;2024-02-16T12:32:17;11.02;;;6.90;;
18407;SDS011;9330;52.210;21.174;2024-02-16T12:34:44;10.50;;;6.03;;
18407;SDS011;9330;52.210;21.174;2024-02-16T12:37:11;7.72;;;5.78;;
18407;SDS011;9330;52.210;21.174;2024-02-16T12:39:40;7.35;;;6.00;;
18407;SDS011;9330;52.210;21.174;2024-02-16T12:42:07;9.13;;;5.85;;
18407;SDS011;9330;52.210;21.174;2024-02-16T12:44:34;9.43;;;6.30;;
18407;SDS011;9330;52.210;21.174;2024-02-16T12:47:01;8.98;;;6.43;;
18407;SDS011;9330;52.210;21.174;2024-02-16T12:49:31;9.25;;;6.97;;
18407;SDS011;9330;52.210;21.174;2024-02-16T12:51:59;9.60;;;7.28;;
18407;SDS011;9330;52.210;21.174;2024-02-16T12:54:26;10.32;;;7.05;;
18407;SDS011;9330;52.210;21.174;2024-02-16T12:56:54;8.50;;;6.47;;
18407;SDS011;9330;52.210;21.174;2024-02-16T12:59:21;9.30;;;7.53;;
18407;SDS011;9330;52.210;21.174;2024-02-16T13:01:48;10.55;;;6.93;;
18407;SDS011;9330;52.210;21.174;2024-02-16T13:04:15;8.48;;;6.80;;
18407;SDS011;9330;52.210;21.174;2024-02-16T13:06:46;11.20;;;7.40;;
18407;SDS011;9330;52.210;21.174;2024-02-16T13:09:13;9.02;;;7.18;;
18407;SDS011;9330;52.210;21.174;2024-02-16T13:11:40;9.15;;;6.93;;
18407;SDS011;9330;52.210;21.174;2024-02-16T13:14:08;11.30;;;8.05;;
18407;SDS011;9330;52.210;21.174;2024-02-16T13:16:35;9.43;;;6.65;;
18407;SDS011;9330;52.210;21.174;2024-02-16T13:19:02;9.65;;;7.03;;
18407;SDS011;9330;52.210;21.174;2024-02-16T13:21:29;8.07;;;6.10;;
18407;SDS011;9330;52.210;21.174;2024-02-16T13:23:56;10.45;;;6.85;;
18407;SDS011;9330;52.210;21.174;2024-02-16T13:26:22;11.52;;;6.97;;
18407;SDS011;9330;52.210;21.174;2024-02-16T13:28:49;9.45;;;6.63;;
18407;SDS011;9330;52.210;21.174;2024-02-16T13:31:19;8.38;;;6.63;;
18407;SDS011;9330;52.210;21.174;2024-02-16T13:33:46;9.95;;;6.72;;
18407;SDS011;9330;52.210;21.174;2024-02-16T13:36:12;9.60;;;6.57;;
18407;SDS011;9330;52.210;21.174;2024-02-16T13:38:39;8.07;;;6.65;;
18407;SDS011;9330;52.210;21.174;2024-02-16T13:41:06;9.45;;;7.10;;
18407;SDS011;9330;52.210;21.174;2024-02-16T13:43:33;11.93;;;7.85;;
18407;SDS011;9330;52.210;21.174;2024-02-16T13:46:01;9.07;;;6.68;;
18407;SDS011;9330;52.210;21.174;2024-02-16T13:48:29;9.18;;;7.00;;
18407;SDS011;9330;52.210;21.174;2024-02-16T13:50:56;9.55;;;7.10;;
18407;SDS011;9330;52.210;21.174;2024-02-16T13:53:25;10.43;;;7.07;;
18407;SDS011;9330;52.210;21.174;2024-02-16T13:55:52;10.20;;;7.60;;
18407;SDS011;9330;52.210;21.174;2024-02-16T13:58:20;10.88;;;7.18;;
18407;SDS011;9330;52.210;21.174;2024-02-16T14:00:47;10.70;;;6.93;;
18407;SDS011;9330;52.210;21.174;2024-02-16T14:03:15;11.40;;;7.47;;
18407;SDS011;9330;52.210;21.174;2024-02-16T14:05:43;9.38;;;6.47;;
18407;SDS011;9330;52.210;21.174;2024-02-16T14:08:12;12.70;;;7.00;;
18407;SDS011;9330;52.210;21.174;2024-02-16T14:10:40;9.60;;;6.40;;
18407;SDS011;9330;52.210;21.174;2024-02-16T14:13:07;9.05;;;5.95;;
18407;SDS011;9330;52.210;21.174;2024-02-16T14:15:34;11.02;;;7.18;;
18407;SDS011;9330;52.210;21.174;2024-02-16T14:18:01;9.13;;;6.22;;
18407;SDS011;9330;52.210;21.174;2024-02-16T14:20:28;8.98;;;6.78;;
18407;SDS011;9330;52.210;21.174;2024-02-16T14:22:57;9.35;;;6.55;;
18407;SDS011;9330;52.210;21.174;2024-02-16T14:25:24;8.82;;;6.45;;
18407;SDS011;9330;52.210;21.174;2024-02-16T14:27:51;8.57;;;6.50;;
18407;SDS011;9330;52.210;21.174;2024-02-16T14:30:18;12.27;;;6.82;;
18407;SDS011;9330;52.210;21.174;2024-02-16T14:32:45;8.13;;;6.30;;
18407;SDS011;9330;52.210;21.174;2024-02-16T14:35:12;9.73;;;6.38;;
18407;SDS011;9330;52.210;21.174;2024-02-16T14:37:39;9.13;;;6.05;;